createdAt,value
2019-01-18T00:00:59.328Z,0.00
2019-01-18T00:01:59.314Z,0.00
2019-01-18T00:02:59.323Z,0.00
2019-01-18T00:03:59.291Z,0.00
2019-01-18T00:04:59.285Z,0.00
2019-01-18T00:05:59.309Z,0.00
2019-01-18T00:06:59.266Z,0.00
2019-01-18T00:07:59.249Z,0.00
2019-01-18T00:08:59.247Z,0.00
2019-01-18T00:09:59.242Z,0.00
2019-01-18T00:10:59.221Z,0.00
2019-01-18T00:11:59.253Z,0.00
2019-01-18T00:12:59.201Z,0.00
2019-01-18T00:13:59.192Z,0.00
2019-01-18T00:14:59.183Z,0.00
2019-01-18T00:15:59.172Z,0.00
2019-01-18T00:16:59.154Z,0.00
2019-01-18T00:17:59.177Z,0.00
2019-01-18T00:18:59.137Z,0.00
2019-01-18T00:19:59.127Z,0.00
2019-01-18T00:20:59.126Z,0.00
2019-01-18T00:21:59.138Z,0.00
2019-01-18T00:22:59.105Z,0.00
2019-01-18T00:23:59.118Z,0.00
2019-01-18T00:24:59.076Z,0.00
2019-01-18T00:25:59.058Z,0.00
2019-01-18T00:26:59.060Z,0.00
2019-01-18T00:27:59.051Z,0.00
2019-01-18T00:28:59.035Z,0.00
2019-01-18T00:29:59.059Z,0.00
2019-01-18T00:30:59.017Z,0.00
2019-01-18T00:31:59.043Z,0.00
2019-01-18T00:32:59.242Z,0.00
2019-01-18T00:33:58.986Z,0.00
2019-01-18T00:34:58.968Z,0.00
2019-01-18T00:35:58.955Z,0.00
2019-01-18T00:36:58.990Z,0.00
2019-01-18T00:37:58.947Z,0.00
2019-01-18T00:38:58.927Z,0.00
2019-01-18T00:39:58.926Z,0.00
2019-01-18T00:40:58.903Z,0.00
2019-01-18T00:41:58.891Z,0.00
2019-01-18T00:42:58.916Z,0.00
2019-01-18T00:43:58.908Z,0.00
2019-01-18T00:44:58.862Z,0.00
2019-01-18T00:45:58.860Z,0.00
2019-01-18T00:46:58.839Z,0.00
2019-01-18T00:47:58.828Z,0.00
2019-01-18T00:48:58.818Z,0.00
2019-01-18T00:49:58.849Z,0.00
2019-01-18T00:50:58.795Z,0.00
2019-01-18T00:51:58.802Z,0.00
2019-01-18T00:52:58.783Z,0.00
2019-01-18T00:53:58.772Z,0.00
2019-01-18T00:54:58.757Z,0.00
2019-01-18T00:55:58.778Z,0.00
2019-01-18T00:56:58.733Z,0.00
2019-01-18T00:57:58.761Z,0.00
2019-01-18T00:58:58.712Z,0.00
2019-01-18T00:59:58.704Z,0.00
2019-01-18T01:00:58.699Z,0.00
2019-01-18T01:01:58.686Z,0.00
2019-01-18T01:02:58.675Z,0.00
2019-01-18T01:03:58.702Z,0.00
2019-01-18T01:04:58.659Z,0.00
2019-01-18T01:05:58.640Z,0.00
2019-01-18T01:06:58.625Z,0.00
2019-01-18T01:07:58.623Z,0.00
2019-01-18T01:08:58.612Z,0.00
2019-01-18T01:09:58.645Z,0.00
2019-01-18T01:10:58.587Z,0.00
2019-01-18T01:11:58.580Z,0.00
2019-01-18T01:12:58.572Z,0.00
2019-01-18T01:13:58.559Z,0.00
2019-01-18T01:14:58.556Z,0.00
2019-01-18T01:15:58.584Z,0.00
2019-01-18T01:16:58.550Z,0.00
2019-01-18T01:17:58.529Z,0.00
2019-01-18T01:18:58.506Z,0.00
2019-01-18T01:19:58.501Z,0.00
2019-01-18T01:20:58.500Z,0.00
2019-01-18T01:21:58.506Z,0.00
2019-01-18T01:22:58.474Z,0.00
2019-01-18T01:23:58.444Z,0.00
2019-01-18T01:24:58.444Z,0.00
2019-01-18T01:25:58.439Z,0.00
2019-01-18T01:26:58.413Z,0.00
2019-01-18T01:27:58.440Z,0.00
2019-01-18T01:28:58.395Z,0.00
2019-01-18T01:29:58.383Z,0.00
2019-01-18T01:30:58.380Z,0.00
2019-01-18T01:31:58.366Z,0.00
2019-01-18T01:32:58.356Z,0.00
2019-01-18T01:33:58.402Z,0.00
2019-01-18T01:34:58.340Z,0.00
2019-01-18T01:35:58.326Z,0.00
2019-01-18T01:36:58.318Z,0.00
2019-01-18T01:37:58.303Z,0.00
2019-01-18T01:38:58.334Z,0.00
2019-01-18T01:39:58.328Z,0.00
2019-01-18T01:40:58.266Z,0.00
2019-01-18T01:41:58.259Z,0.00
2019-01-18T01:42:58.257Z,0.00
2019-01-18T01:43:58.248Z,0.00
2019-01-18T01:44:58.228Z,0.00
2019-01-18T01:45:58.255Z,0.00
2019-01-18T01:46:58.205Z,0.00
2019-01-18T01:47:58.195Z,0.00
2019-01-18T01:48:58.199Z,0.00
2019-01-18T01:49:58.176Z,0.00
2019-01-18T01:50:58.165Z,0.00
2019-01-18T01:51:58.192Z,0.00
2019-01-18T01:52:58.143Z,0.00
2019-01-18T01:53:58.146Z,0.00
2019-01-18T01:54:58.136Z,0.00
2019-01-18T01:55:58.111Z,0.00
2019-01-18T01:56:58.103Z,0.00
2019-01-18T01:57:58.132Z,0.00
2019-01-18T01:58:58.084Z,0.00
2019-01-18T01:59:58.070Z,0.00
2019-01-18T02:00:58.071Z,0.00
2019-01-18T02:01:58.102Z,0.00
2019-01-18T02:02:58.044Z,0.00
2019-01-18T02:03:58.031Z,0.00
2019-01-18T02:04:58.022Z,0.00
2019-01-18T02:05:58.010Z,0.00
2019-01-18T02:06:58.001Z,0.00
2019-01-18T02:07:58.038Z,0.00
2019-01-18T02:08:57.976Z,0.00
2019-01-18T02:09:57.965Z,0.00
2019-01-18T02:10:57.955Z,0.00
2019-01-18T02:11:57.945Z,0.00
2019-01-18T02:12:57.941Z,0.00
2019-01-18T02:13:57.979Z,0.00
2019-01-18T02:14:57.916Z,0.00
2019-01-18T02:15:57.904Z,0.00
2019-01-18T02:16:57.894Z,0.00
2019-01-18T02:17:57.883Z,0.00
2019-01-18T02:18:57.876Z,0.00
2019-01-18T02:19:57.915Z,0.00
2019-01-18T02:20:57.859Z,0.00
2019-01-18T02:21:57.848Z,0.00
2019-01-18T02:22:57.838Z,0.00
2019-01-18T02:23:57.829Z,0.00
2019-01-18T02:24:57.831Z,0.00
2019-01-18T02:25:57.846Z,0.00
2019-01-18T02:26:57.804Z,0.00
2019-01-18T02:27:57.786Z,0.00
2019-01-18T02:28:57.789Z,0.00
2019-01-18T02:29:57.789Z,0.00
2019-01-18T02:30:57.755Z,0.00
2019-01-18T02:31:57.801Z,0.00
2019-01-18T02:32:57.746Z,0.00
2019-01-18T02:33:57.751Z,0.00
2019-01-18T02:34:57.719Z,0.00
2019-01-18T02:35:57.702Z,0.00
2019-01-18T02:36:57.693Z,0.00
2019-01-18T02:37:57.723Z,0.00
2019-01-18T02:38:57.668Z,0.00
2019-01-18T02:39:57.656Z,0.00
2019-01-18T02:40:57.650Z,0.00
2019-01-18T02:41:57.646Z,0.00
2019-01-18T02:42:57.624Z,0.00
2019-01-18T02:43:57.654Z,0.00
2019-01-18T02:44:57.608Z,0.00
2019-01-18T02:45:57.593Z,0.00
2019-01-18T02:46:57.581Z,0.00
2019-01-18T02:47:57.577Z,0.00
2019-01-18T02:48:57.557Z,0.00
2019-01-18T02:49:57.585Z,0.00
2019-01-18T02:50:57.539Z,0.00
2019-01-18T02:51:57.527Z,0.00
2019-01-18T02:52:57.523Z,0.00
2019-01-18T02:53:57.509Z,0.00
2019-01-18T02:54:57.498Z,0.00
2019-01-18T02:55:57.522Z,0.00
2019-01-18T02:56:57.473Z,0.00
2019-01-18T02:57:57.467Z,0.00
2019-01-18T02:58:57.451Z,0.00
2019-01-18T03:00:04.409Z,0.00
2019-01-18T03:00:58.452Z,0.00
2019-01-18T03:01:57.459Z,0.00
2019-01-18T03:02:57.407Z,0.00
2019-01-18T03:03:57.400Z,0.00
2019-01-18T03:04:57.389Z,0.00
2019-01-18T03:05:57.377Z,0.00
2019-01-18T03:06:57.382Z,0.00
2019-01-18T03:07:57.394Z,0.00
2019-01-18T03:08:57.351Z,0.00
2019-01-18T03:09:57.337Z,0.00
2019-01-18T03:10:57.326Z,0.00
2019-01-18T03:11:57.315Z,0.00
2019-01-18T03:12:57.308Z,0.00
2019-01-18T03:13:57.339Z,0.00
2019-01-18T03:14:57.286Z,0.00
2019-01-18T03:15:57.272Z,0.00
2019-01-18T03:16:57.262Z,0.00
2019-01-18T03:17:57.253Z,0.00
2019-01-18T03:18:57.243Z,0.00
2019-01-18T03:19:57.279Z,0.00
2019-01-18T03:20:57.231Z,0.00
2019-01-18T03:21:57.212Z,0.00
2019-01-18T03:22:57.201Z,0.00
2019-01-18T03:23:57.188Z,0.00
2019-01-18T03:24:57.174Z,0.00
2019-01-18T03:25:57.204Z,0.00
2019-01-18T03:26:57.155Z,0.00
2019-01-18T03:27:57.157Z,0.00
2019-01-18T03:28:57.143Z,0.00
2019-01-18T03:29:57.128Z,0.00
2019-01-18T03:30:57.123Z,0.00
2019-01-18T03:31:57.158Z,0.00
2019-01-18T03:32:57.097Z,0.00
2019-01-18T03:33:57.095Z,0.00
2019-01-18T03:34:57.072Z,0.00
2019-01-18T03:35:57.061Z,0.00
2019-01-18T03:36:57.058Z,0.00
2019-01-18T03:37:57.089Z,0.00
2019-01-18T03:38:57.031Z,0.00
2019-01-18T03:39:57.023Z,0.00
2019-01-18T03:40:57.010Z,0.00
2019-01-18T03:41:57.003Z,0.00
2019-01-18T03:42:57.001Z,0.00
2019-01-18T03:43:57.017Z,0.00
2019-01-18T03:44:56.962Z,0.00
2019-01-18T03:45:56.956Z,0.00
2019-01-18T03:46:56.948Z,0.00
2019-01-18T03:47:56.936Z,0.00
2019-01-18T03:48:56.937Z,0.00
2019-01-18T03:49:56.954Z,0.00
2019-01-18T03:50:56.902Z,0.00
2019-01-18T03:51:56.894Z,0.00
2019-01-18T03:52:56.898Z,0.00
2019-01-18T03:53:56.883Z,0.00
2019-01-18T03:54:56.860Z,0.00
2019-01-18T03:55:56.894Z,0.00
2019-01-18T03:56:56.838Z,0.00
2019-01-18T03:57:56.828Z,0.00
2019-01-18T03:58:56.846Z,0.00
2019-01-18T03:59:56.823Z,0.00
2019-01-18T04:00:56.805Z,0.00
2019-01-18T04:01:56.846Z,0.00
2019-01-18T04:02:56.796Z,0.00
2019-01-18T04:03:56.770Z,0.00
2019-01-18T04:04:56.769Z,0.00
2019-01-18T04:05:56.745Z,0.00
2019-01-18T04:06:56.749Z,0.00
2019-01-18T04:07:56.761Z,0.00
2019-01-18T04:08:56.715Z,0.00
2019-01-18T04:09:56.712Z,0.00
2019-01-18T04:10:56.701Z,0.00
2019-01-18T04:11:56.686Z,0.00
2019-01-18T04:12:56.676Z,0.00
2019-01-18T04:13:56.710Z,0.00
2019-01-18T04:14:56.650Z,0.00
2019-01-18T04:15:56.654Z,0.00
2019-01-18T04:16:56.643Z,0.00
2019-01-18T04:17:56.626Z,0.00
2019-01-18T04:18:56.610Z,0.00
2019-01-18T04:19:56.646Z,0.00
2019-01-18T04:20:56.592Z,0.00
2019-01-18T04:21:56.581Z,0.00
2019-01-18T04:22:56.573Z,0.00
2019-01-18T04:23:56.570Z,0.00
2019-01-18T04:24:56.559Z,0.00
2019-01-18T04:25:56.591Z,0.00
2019-01-18T04:26:56.539Z,0.00
2019-01-18T04:27:56.523Z,0.00
2019-01-18T04:28:56.520Z,0.00
2019-01-18T04:29:56.497Z,0.00
2019-01-18T04:30:56.496Z,0.00
2019-01-18T04:31:56.520Z,0.00
2019-01-18T04:32:56.467Z,0.00
2019-01-18T04:33:56.465Z,0.00
2019-01-18T04:34:56.449Z,0.00
2019-01-18T04:35:56.457Z,0.00
2019-01-18T04:36:56.433Z,0.00
2019-01-18T04:37:56.457Z,0.00
2019-01-18T04:38:56.404Z,0.00
2019-01-18T04:39:56.395Z,0.00
2019-01-18T04:40:56.389Z,0.00
2019-01-18T04:41:56.413Z,0.00
2019-01-18T04:42:56.382Z,0.00
2019-01-18T04:43:56.359Z,0.00
2019-01-18T04:44:56.354Z,0.00
2019-01-18T04:45:56.347Z,0.00
2019-01-18T04:46:56.371Z,0.00
2019-01-18T04:47:56.323Z,0.00
2019-01-18T04:48:56.313Z,0.00
2019-01-18T04:49:56.292Z,0.00
2019-01-18T04:50:56.286Z,0.00
2019-01-18T04:51:56.276Z,0.00
2019-01-18T04:52:56.307Z,0.00
2019-01-18T04:53:56.272Z,0.00
2019-01-18T04:54:56.240Z,0.00
2019-01-18T04:55:56.228Z,0.00
2019-01-18T04:56:56.237Z,0.00
2019-01-18T04:57:56.213Z,0.00
2019-01-18T04:58:56.238Z,0.00
2019-01-18T04:59:56.191Z,0.00
2019-01-18T05:00:56.179Z,0.00
2019-01-18T05:01:56.169Z,0.00
2019-01-18T05:02:56.181Z,0.00
2019-01-18T05:03:56.188Z,0.00
2019-01-18T05:04:56.138Z,0.00
2019-01-18T05:05:56.139Z,0.00
2019-01-18T05:06:56.117Z,0.00
2019-01-18T05:07:56.106Z,0.00
2019-01-18T05:08:56.111Z,0.00
2019-01-18T05:09:56.132Z,0.00
2019-01-18T05:10:56.080Z,0.00
2019-01-18T05:11:56.073Z,0.00
2019-01-18T05:12:56.062Z,0.00
2019-01-18T05:13:56.051Z,0.00
2019-01-18T05:14:56.048Z,0.00
2019-01-18T05:15:56.072Z,0.00
2019-01-18T05:16:56.028Z,0.00
2019-01-18T05:17:56.017Z,0.00
2019-01-18T05:18:56.000Z,0.00
2019-01-18T05:19:55.987Z,0.00
2019-01-18T05:20:55.980Z,0.00
2019-01-18T05:21:56.000Z,0.00
2019-01-18T05:22:55.960Z,0.00
2019-01-18T05:23:55.987Z,0.00
2019-01-18T05:24:55.950Z,0.00
2019-01-18T05:25:55.933Z,0.00
2019-01-18T05:26:55.918Z,0.00
2019-01-18T05:27:55.908Z,0.00
2019-01-18T05:28:55.935Z,0.00
2019-01-18T05:29:55.885Z,0.00
2019-01-18T05:30:55.882Z,0.00
2019-01-18T05:31:55.874Z,0.00
2019-01-18T05:32:55.863Z,0.00
2019-01-18T05:33:55.852Z,0.00
2019-01-18T05:34:55.885Z,0.00
2019-01-18T05:35:55.882Z,0.00
2019-01-18T05:36:55.815Z,0.00
2019-01-18T05:37:55.825Z,0.00
2019-01-18T05:38:55.806Z,0.00
2019-01-18T05:39:55.788Z,0.00
2019-01-18T05:40:55.793Z,0.00
2019-01-18T05:41:55.812Z,0.00
2019-01-18T05:42:55.754Z,0.00
2019-01-18T05:43:55.744Z,0.00
2019-01-18T05:44:55.780Z,0.00
2019-01-18T05:45:55.737Z,0.00
2019-01-18T05:46:55.711Z,0.00
2019-01-18T05:47:55.705Z,0.00
2019-01-18T05:48:55.695Z,0.00
2019-01-18T05:49:55.684Z,0.00
2019-01-18T05:50:55.709Z,0.00
2019-01-18T05:51:55.720Z,0.00
2019-01-18T05:52:55.655Z,0.00
2019-01-18T05:53:55.638Z,0.00
2019-01-18T05:54:55.636Z,0.00
2019-01-18T05:55:55.620Z,0.00
2019-01-18T05:56:55.649Z,0.00
2019-01-18T05:57:55.602Z,0.00
2019-01-18T05:58:55.596Z,0.00
2019-01-18T05:59:55.582Z,0.00
2019-01-18T06:00:55.723Z,0.00
2019-01-18T06:01:55.554Z,0.00
2019-01-18T06:02:55.586Z,0.00
2019-01-18T06:03:55.535Z,0.00
2019-01-18T06:04:55.559Z,0.00
2019-01-18T06:05:55.549Z,0.00
2019-01-18T06:06:55.503Z,0.00
2019-01-18T06:07:55.493Z,0.00
2019-01-18T06:08:55.525Z,0.00
2019-01-18T06:09:55.488Z,0.00
2019-01-18T06:10:55.463Z,0.00
2019-01-18T06:11:55.472Z,0.00
2019-01-18T06:12:55.444Z,0.00
2019-01-18T06:13:55.464Z,0.00
2019-01-18T06:14:55.417Z,0.00
2019-01-18T06:15:55.409Z,0.00
2019-01-18T06:16:55.401Z,0.00
2019-01-18T06:17:55.407Z,0.00
2019-01-18T06:18:55.418Z,0.00
2019-01-18T06:19:55.367Z,0.00
2019-01-18T06:20:55.356Z,0.00
2019-01-18T06:21:55.344Z,0.00
2019-01-18T06:22:55.341Z,0.00
2019-01-18T06:23:55.359Z,0.00
2019-01-18T06:24:55.359Z,0.00
2019-01-18T06:25:55.306Z,0.00
2019-01-18T06:26:55.297Z,0.00
2019-01-18T06:27:55.328Z,0.00
2019-01-18T06:28:55.274Z,0.00
2019-01-18T06:29:55.293Z,4.00
2019-01-18T06:31:01.580Z,4.00
2019-01-18T06:31:56.238Z,4.00
2019-01-18T06:32:55.233Z,4.00
2019-01-18T06:33:55.887Z,4.00
2019-01-18T06:34:55.217Z,4.00
2019-01-18T06:35:55.201Z,4.00
2019-01-18T06:36:55.247Z,8.00
2019-01-18T06:37:55.178Z,8.00
2019-01-18T06:38:55.216Z,12.00
2019-01-18T06:39:55.161Z,16.00
2019-01-18T06:40:55.147Z,16.00
2019-01-18T06:41:55.136Z,20.00
2019-01-18T06:42:55.185Z,24.00
2019-01-18T06:43:55.113Z,28.00
2019-01-18T06:44:55.103Z,32.00
2019-01-18T06:45:55.094Z,40.00
2019-01-18T06:46:55.083Z,48.00
2019-01-18T06:47:55.072Z,56.00
2019-01-18T06:48:55.119Z,60.00
2019-01-18T06:49:55.054Z,72.00
2019-01-18T06:50:55.077Z,84.00
2019-01-18T06:51:55.029Z,96.00
2019-01-18T06:52:55.018Z,108.00
2019-01-18T06:53:55.016Z,128.00
2019-01-18T06:54:55.000Z,144.00
2019-01-18T06:55:55.002Z,160.00
2019-01-18T06:56:55.016Z,180.00
2019-01-18T06:57:54.968Z,200.00
2019-01-18T06:58:54.960Z,224.00
2019-01-18T06:59:54.947Z,248.00
2019-01-18T07:00:54.940Z,276.00
2019-01-18T07:01:54.944Z,296.00
2019-01-18T07:02:54.951Z,324.00
2019-01-18T07:03:54.904Z,352.00
2019-01-18T07:04:54.895Z,376.00
2019-01-18T07:05:54.889Z,396.00
2019-01-18T07:06:54.878Z,428.00
2019-01-18T07:07:54.884Z,452.00
2019-01-18T07:08:54.889Z,476.00
2019-01-18T07:09:54.842Z,504.00
2019-01-18T07:10:54.836Z,532.00
2019-01-18T07:11:54.824Z,560.00
2019-01-18T07:12:54.808Z,588.00
2019-01-18T07:13:54.810Z,616.00
2019-01-18T07:14:54.829Z,648.00
2019-01-18T07:15:54.775Z,676.00
2019-01-18T07:16:54.763Z,708.00
2019-01-18T07:17:54.758Z,732.00
2019-01-18T07:18:54.765Z,764.00
2019-01-18T07:19:54.735Z,792.00
2019-01-18T07:20:54.775Z,820.00
2019-01-18T07:21:54.712Z,852.00
2019-01-18T07:22:54.700Z,884.00
2019-01-18T07:23:54.693Z,908.00
2019-01-18T07:24:54.684Z,936.00
2019-01-18T07:25:54.670Z,964.00
2019-01-18T07:26:54.716Z,984.00
2019-01-18T07:27:54.647Z,1004.00
2019-01-18T07:28:54.638Z,1028.00
2019-01-18T07:29:54.632Z,1052.00
2019-01-18T07:30:54.619Z,1076.00
2019-01-18T07:31:54.611Z,1104.00
2019-01-18T07:32:54.646Z,1132.00
2019-01-18T07:33:54.588Z,1148.00
2019-01-18T07:34:54.576Z,1172.00
2019-01-18T07:35:54.566Z,1196.00
2019-01-18T07:36:54.562Z,1220.00
2019-01-18T07:37:54.549Z,1240.00
2019-01-18T07:39:00.388Z,1264.00
2019-01-18T07:39:55.530Z,1284.00
2019-01-18T07:40:54.513Z,1304.00
2019-01-18T07:41:54.508Z,1328.00
2019-01-18T07:42:54.554Z,1348.00
2019-01-18T07:43:54.508Z,1364.00
2019-01-18T07:44:54.472Z,1388.00
2019-01-18T07:45:54.483Z,1404.00
2019-01-18T07:46:54.456Z,1428.00
2019-01-18T07:47:54.442Z,1444.00
2019-01-18T07:48:54.475Z,1464.00
2019-01-18T07:49:54.420Z,1484.00
2019-01-18T07:50:54.419Z,1504.00
2019-01-18T07:51:54.452Z,1524.00
2019-01-18T07:52:54.425Z,1540.00
2019-01-18T07:53:54.379Z,1560.00
2019-01-18T07:54:54.374Z,1576.00
2019-01-18T07:55:54.358Z,1592.00
2019-01-18T07:56:54.354Z,1608.00
2019-01-18T07:57:54.397Z,1628.00
2019-01-18T07:58:54.330Z,1640.00
2019-01-18T07:59:54.319Z,1660.00
2019-01-18T08:00:54.332Z,1672.00
2019-01-18T08:01:54.301Z,1692.00
2019-01-18T08:02:54.330Z,1708.00
2019-01-18T08:03:54.291Z,1720.00
2019-01-18T08:04:54.269Z,1736.00
2019-01-18T08:05:54.259Z,1752.00
2019-01-18T08:06:54.251Z,1768.00
2019-01-18T08:07:54.238Z,1780.00
2019-01-18T08:08:54.268Z,1796.00
2019-01-18T08:09:54.233Z,1812.00
2019-01-18T08:10:54.222Z,1824.00
2019-01-18T08:11:54.198Z,1840.00
2019-01-18T08:12:54.230Z,1852.00
2019-01-18T08:13:54.198Z,1868.00
2019-01-18T08:14:54.169Z,1880.00
2019-01-18T08:15:54.162Z,1896.00
2019-01-18T08:16:54.170Z,1912.00
2019-01-18T08:17:54.189Z,1928.00
2019-01-18T08:18:54.126Z,1940.00
2019-01-18T08:19:54.115Z,1960.00
2019-01-18T08:20:54.123Z,1968.00
2019-01-18T08:21:54.102Z,1976.00
2019-01-18T08:22:54.084Z,1996.00
2019-01-18T08:23:54.113Z,2004.00
2019-01-18T08:24:54.069Z,2016.00
2019-01-18T08:25:54.070Z,2032.00
2019-01-18T08:26:54.043Z,2044.00
2019-01-18T08:27:54.045Z,2056.00
2019-01-18T08:28:54.027Z,2076.00
2019-01-18T08:29:54.050Z,2084.00
2019-01-18T08:30:54.047Z,2092.00
2019-01-18T08:31:54.022Z,2104.00
2019-01-18T08:32:53.986Z,2116.00
2019-01-18T08:33:53.976Z,2128.00
2019-01-18T08:34:53.997Z,2144.00
2019-01-18T08:35:53.955Z,2156.00
2019-01-18T08:36:53.989Z,2168.00
2019-01-18T08:37:53.931Z,2180.00
2019-01-18T08:38:53.934Z,2188.00
2019-01-18T08:39:53.914Z,2200.00
2019-01-18T08:40:53.936Z,2216.00
2019-01-18T08:41:53.897Z,2228.00
2019-01-18T08:42:53.918Z,2244.00
2019-01-18T08:43:53.912Z,2256.00
2019-01-18T08:44:53.863Z,2272.00
2019-01-18T08:45:53.889Z,2288.00
2019-01-18T08:46:53.861Z,2304.00
2019-01-18T08:47:53.839Z,2320.00
2019-01-18T08:48:53.861Z,2340.00
2019-01-18T08:49:53.813Z,2364.00
2019-01-18T08:50:53.801Z,2384.00
2019-01-18T08:51:53.795Z,2412.00
2019-01-18T08:52:53.804Z,2436.00
2019-01-18T08:53:53.768Z,2468.00
2019-01-18T08:54:53.811Z,2504.00
2019-01-18T08:55:53.758Z,2540.00
2019-01-18T08:56:53.783Z,2580.00
2019-01-18T08:57:53.747Z,2632.00
2019-01-18T08:58:53.724Z,2684.00
2019-01-18T08:59:53.709Z,2740.00
2019-01-18T09:00:53.709Z,2808.00
2019-01-18T09:01:53.687Z,2868.00
2019-01-18T09:02:53.719Z,2932.00
2019-01-18T09:03:53.699Z,2988.00
2019-01-18T09:04:53.660Z,3040.00
2019-01-18T09:05:53.645Z,3100.00
2019-01-18T09:06:53.636Z,3148.00
2019-01-18T09:07:53.633Z,3196.00
2019-01-18T09:08:53.701Z,3244.00
2019-01-18T09:09:53.614Z,3284.00
2019-01-18T09:10:53.603Z,3328.00
2019-01-18T09:11:53.586Z,3368.00
2019-01-18T09:12:53.577Z,3400.00
2019-01-18T09:13:53.590Z,3428.00
2019-01-18T09:14:53.608Z,3452.00
2019-01-18T09:15:53.543Z,3468.00
2019-01-18T09:16:53.537Z,3480.00
2019-01-18T09:17:53.575Z,3484.00
2019-01-18T09:18:53.519Z,3472.00
2019-01-18T09:19:53.514Z,3460.00
2019-01-18T09:20:53.542Z,3456.00
2019-01-18T09:21:53.481Z,3428.00
2019-01-18T09:22:53.502Z,3408.00
2019-01-18T09:23:53.515Z,3396.00
2019-01-18T09:24:53.458Z,3388.00
2019-01-18T09:25:53.445Z,3376.00
2019-01-18T09:26:53.465Z,3368.00
2019-01-18T09:27:53.427Z,3368.00
2019-01-18T09:28:53.423Z,3348.00
2019-01-18T09:29:53.471Z,3340.00
2019-01-18T09:30:53.398Z,3316.00
2019-01-18T09:31:53.393Z,3304.00
2019-01-18T09:32:53.384Z,3296.00
2019-01-18T09:33:53.374Z,3280.00
2019-01-18T09:34:53.381Z,3284.00
2019-01-18T09:35:53.517Z,3288.00
2019-01-18T09:36:53.346Z,3324.00
2019-01-18T09:37:53.339Z,3472.00
2019-01-18T09:38:53.355Z,3636.00
2019-01-18T09:39:53.310Z,4568.00
2019-01-18T09:40:53.355Z,8764.00
2019-01-18T09:41:53.300Z,15324.00
2019-01-18T09:42:53.295Z,23168.00
2019-01-18T09:43:53.806Z,23168.00
2019-01-18T09:44:53.255Z,22464.00
2019-01-18T09:45:53.276Z,23808.00
2019-01-18T09:46:53.275Z,23520.00
2019-01-18T09:47:53.235Z,24704.00
2019-01-18T09:48:53.224Z,24960.00
2019-01-18T09:49:53.204Z,23936.00
2019-01-18T09:50:53.187Z,24800.00
2019-01-18T09:51:53.175Z,25664.00
2019-01-18T09:52:53.208Z,25952.00
2019-01-18T09:53:53.179Z,25920.00
2019-01-18T09:54:53.144Z,25824.00
2019-01-18T09:55:53.145Z,26432.00
2019-01-18T09:56:53.131Z,26432.00
2019-01-18T09:57:53.111Z,26720.00
2019-01-18T09:58:53.150Z,26816.00
2019-01-18T09:59:53.267Z,27040.00
2019-01-18T10:00:53.079Z,27328.00
2019-01-18T10:01:53.109Z,27584.00
2019-01-18T10:02:53.068Z,27840.00
2019-01-18T10:03:53.056Z,28096.00
2019-01-18T10:04:53.042Z,28448.00
2019-01-18T10:05:53.212Z,28800.00
2019-01-18T10:06:53.062Z,29120.00
2019-01-18T10:07:53.009Z,29536.00
2019-01-18T10:08:53.013Z,29920.00
2019-01-18T10:09:52.992Z,30272.00
2019-01-18T10:10:52.981Z,30688.00
2019-01-18T10:11:53.178Z,31104.00
2019-01-18T10:12:53.006Z,31616.00
2019-01-18T10:13:52.947Z,32224.00
2019-01-18T10:14:52.939Z,32704.00
2019-01-18T10:15:52.926Z,33312.00
2019-01-18T10:16:52.918Z,33856.00
2019-01-18T10:18:00.391Z,34464.00
2019-01-18T10:18:53.928Z,35040.00
2019-01-18T10:19:52.884Z,35840.00
2019-01-18T10:20:52.987Z,36192.00
2019-01-18T10:21:52.861Z,36480.00
2019-01-18T10:22:52.855Z,36864.00
2019-01-18T10:23:52.877Z,37408.00
2019-01-18T10:24:52.871Z,37952.00
2019-01-18T10:25:52.818Z,38656.00
2019-01-18T10:26:52.805Z,39968.00
2019-01-18T10:27:52.811Z,38848.00
2019-01-18T10:28:52.791Z,19328.00
2019-01-18T10:29:52.771Z,6684.00
2019-01-18T10:30:52.813Z,5860.00
2019-01-18T10:31:56.248Z,8288.00
2019-01-18T10:32:52.767Z,7584.00
2019-01-18T10:33:52.730Z,7408.00
2019-01-18T10:34:52.719Z,8972.00
2019-01-18T10:35:52.711Z,8688.00
2019-01-18T10:36:52.748Z,7384.00
2019-01-18T10:37:52.687Z,9796.00
2019-01-18T10:38:52.702Z,8792.00
2019-01-18T10:39:52.667Z,10044.00
2019-01-18T10:40:52.656Z,8604.00
2019-01-18T10:41:52.669Z,8504.00
2019-01-18T10:42:52.692Z,9500.00
2019-01-18T10:43:52.627Z,12412.00
2019-01-18T10:44:52.637Z,26912.00
2019-01-18T10:45:52.605Z,42304.00
2019-01-18T10:46:52.594Z,20032.00
2019-01-18T10:47:52.628Z,10752.00
2019-01-18T10:48:52.574Z,11196.00
2019-01-18T10:49:52.580Z,14404.00
2019-01-18T10:50:52.554Z,18432.00
2019-01-18T10:51:52.542Z,34752.00
2019-01-18T10:52:52.532Z,32544.00
2019-01-18T10:53:52.565Z,31264.00
2019-01-18T10:54:52.515Z,32544.00
2019-01-18T10:55:52.518Z,21664.00
2019-01-18T10:56:52.490Z,29664.00
2019-01-18T10:57:52.502Z,30976.00
2019-01-18T10:58:52.486Z,28832.00
2019-01-18T10:59:52.502Z,27680.00
2019-01-18T11:00:52.451Z,17248.00
2019-01-18T11:01:52.463Z,16892.00
2019-01-18T11:02:52.429Z,18528.00
2019-01-18T11:03:52.432Z,25280.00
2019-01-18T11:04:52.410Z,23328.00
2019-01-18T11:05:52.453Z,22816.00
2019-01-18T11:06:52.392Z,22112.00
2019-01-18T11:07:52.377Z,22528.00
2019-01-18T11:08:52.372Z,21920.00
2019-01-18T11:09:52.382Z,22048.00
2019-01-18T11:10:52.349Z,21664.00
2019-01-18T11:11:52.400Z,22720.00
2019-01-18T11:12:52.326Z,21312.00
2019-01-18T11:13:52.316Z,21344.00
2019-01-18T11:14:52.308Z,21216.00
2019-01-18T11:15:52.320Z,21792.00
2019-01-18T11:16:52.287Z,21536.00
2019-01-18T11:17:52.315Z,22016.00
2019-01-18T11:18:52.266Z,22944.00
2019-01-18T11:19:52.259Z,24096.00
2019-01-18T11:20:52.245Z,24672.00
2019-01-18T11:21:52.252Z,26656.00
2019-01-18T11:22:52.225Z,25248.00
2019-01-18T11:23:52.248Z,23456.00
2019-01-18T11:24:52.204Z,24832.00
2019-01-18T11:25:52.188Z,24512.00
2019-01-18T11:26:52.184Z,26400.00
2019-01-18T11:27:52.188Z,28960.00
2019-01-18T11:28:52.200Z,26112.00
2019-01-18T11:29:52.149Z,25856.00
2019-01-18T11:30:52.142Z,25376.00
2019-01-18T11:31:52.126Z,26528.00
2019-01-18T11:32:52.117Z,26208.00
2019-01-18T11:33:52.156Z,30816.00
2019-01-18T11:34:52.097Z,32928.00
2019-01-18T11:35:52.089Z,38912.00
2019-01-18T11:36:56.423Z,37056.00
2019-01-18T11:37:53.108Z,38016.00
2019-01-18T11:38:52.057Z,44640.00
2019-01-18T11:39:52.054Z,45536.00
2019-01-18T11:40:52.040Z,46784.00
2019-01-18T11:41:52.023Z,46752.00
2019-01-18T11:42:52.017Z,46592.00
2019-01-18T11:43:52.045Z,46240.00
2019-01-18T11:44:51.992Z,46240.00
2019-01-18T11:45:51.988Z,45536.00
2019-01-18T11:46:51.983Z,43456.00
2019-01-18T11:47:51.957Z,43072.00
2019-01-18T11:48:51.987Z,44128.00
2019-01-18T11:49:51.977Z,44448.00
2019-01-18T11:50:51.925Z,45984.00
2019-01-18T11:51:51.915Z,46496.00
2019-01-18T11:52:51.913Z,47232.00
2019-01-18T11:53:51.896Z,48576.00
2019-01-18T11:54:51.886Z,46464.00
2019-01-18T11:55:51.919Z,47584.00
2019-01-18T11:56:51.865Z,47104.00
2019-01-18T11:57:51.853Z,48256.00
2019-01-18T11:58:51.861Z,47392.00
2019-01-18T11:59:51.843Z,47872.00
2019-01-18T12:00:51.819Z,39296.00
2019-01-18T12:01:51.857Z,48480.00
2019-01-18T12:02:51.807Z,49152.00
2019-01-18T12:03:51.784Z,47808.00
2019-01-18T12:04:51.797Z,46848.00
2019-01-18T12:05:51.773Z,46496.00
2019-01-18T12:06:51.756Z,46400.00
2019-01-18T12:07:51.809Z,43200.00
2019-01-18T12:08:51.739Z,41408.00
2019-01-18T12:09:51.723Z,39168.00
2019-01-18T12:10:51.731Z,40192.00
2019-01-18T12:11:51.704Z,38816.00
2019-01-18T12:12:51.697Z,38656.00
2019-01-18T12:13:51.721Z,38496.00
2019-01-18T12:14:51.676Z,36736.00
2019-01-18T12:15:51.665Z,36000.00
2019-01-18T12:16:51.669Z,35552.00
2019-01-18T12:17:51.645Z,35456.00
2019-01-18T12:18:51.672Z,35008.00
2019-01-18T12:19:51.619Z,35072.00
2019-01-18T12:20:51.611Z,34528.00
2019-01-18T12:21:51.615Z,35168.00
2019-01-18T12:22:51.588Z,34816.00
2019-01-18T12:23:51.577Z,35328.00
2019-01-18T12:24:51.613Z,34208.00
2019-01-18T12:25:51.565Z,33984.00
2019-01-18T12:26:51.549Z,34848.00
2019-01-18T12:27:51.567Z,34784.00
2019-01-18T12:28:51.527Z,35488.00
2019-01-18T12:29:51.515Z,35136.00
2019-01-18T12:30:51.542Z,37952.00
2019-01-18T12:31:51.493Z,47904.00
2019-01-18T12:32:51.487Z,63552.00
2019-01-18T12:33:51.488Z,69952.00
2019-01-18T12:34:51.470Z,63648.00
2019-01-18T12:35:51.452Z,53632.00
2019-01-18T12:36:52.862Z,48000.00
2019-01-18T12:37:52.427Z,48512.00
2019-01-18T12:38:51.423Z,55392.00